createdAt,value
2022-08-08T00:00:53.598Z,67.84
2022-08-08T00:06:02.658Z,67.16
2022-08-08T00:11:15.116Z,66.47
2022-08-08T00:16:25.828Z,67.09
2022-08-08T00:21:39.637Z,68.44
2022-08-08T00:26:51.703Z,66.72
2022-08-08T00:32:20.846Z,68.74
2022-08-08T00:37:46.948Z,70.00
2022-08-08T00:43:23.798Z,67.92
2022-08-08T00:49:22.054Z,68.26
2022-08-08T00:54:55.132Z,69.02
2022-08-08T01:00:11.582Z,69.23
2022-08-08T01:06:02.269Z,69.03
2022-08-08T01:12:03.391Z,68.32
2022-08-08T01:17:52.082Z,70.25
2022-08-08T01:24:05.384Z,68.85
2022-08-08T01:30:03.200Z,70.91
2022-08-08T01:35:53.533Z,72.60
2022-08-08T01:41:15.856Z,72.23
2022-08-08T01:46:47.288Z,73.51
2022-08-08T01:52:42.105Z,71.51
2022-08-08T01:58:11.630Z,72.94
2022-08-08T02:03:54.629Z,74.04
2022-08-08T02:09:00.846Z,71.85
2022-08-08T02:14:20.644Z,73.02
2022-08-08T02:20:07.456Z,72.71
2022-08-08T02:25:07.454Z,76.10
2022-08-08T02:30:24.701Z,77.49
2022-08-08T02:36:05.272Z,74.39
2022-08-08T02:42:04.043Z,74.12
2022-08-08T02:47:26.055Z,74.95
2022-08-08T02:52:57.185Z,76.62
2022-08-08T02:58:47.577Z,73.20
2022-08-08T03:05:02.557Z,72.75
2022-08-08T03:10:44.688Z,74.66
2022-08-08T03:16:39.870Z,74.20
2022-08-08T03:21:58.761Z,74.64
2022-08-08T03:27:14.379Z,74.58
2022-08-08T03:32:37.078Z,74.45
2022-08-08T03:37:59.341Z,75.83
2022-08-08T03:43:16.504Z,76.43
2022-08-08T03:49:09.582Z,75.08
2022-08-08T03:53:50.759Z,80.02
2022-08-08T03:59:02.760Z,80.81
2022-08-08T04:04:08.512Z,81.90
2022-08-08T04:09:17.823Z,79.19
2022-08-08T04:14:35.817Z,76.14
2022-08-08T04:19:41.412Z,75.25
2022-08-08T04:24:48.729Z,75.46
2022-08-08T04:30:16.974Z,75.89
2022-08-08T04:35:22.669Z,77.80
2022-08-08T04:40:27.837Z,76.64
2022-08-08T04:45:35.041Z,75.75
2022-08-08T04:50:46.124Z,75.59
2022-08-08T04:55:57.079Z,74.24
2022-08-08T05:01:10.799Z,74.15
2022-08-08T05:06:18.381Z,73.02
2022-08-08T05:11:39.014Z,72.96
2022-08-08T05:16:53.884Z,71.81
2022-08-08T05:22:08.983Z,69.45
2022-08-08T05:27:17.652Z,69.51
2022-08-08T05:32:24.376Z,69.04
2022-08-08T05:37:51.910Z,71.95
2022-08-08T05:43:01.631Z,72.38
2022-08-08T05:48:09.808Z,68.16
2022-08-08T05:53:23.010Z,71.11
2022-08-08T05:58:53.650Z,71.86
2022-08-08T06:04:13.543Z,72.75
2022-08-08T06:09:58.519Z,69.85
2022-08-08T06:14:48.969Z,68.90
2022-08-08T06:19:58.167Z,68.79
2022-08-08T06:25:03.280Z,65.25
2022-08-08T06:30:11.937Z,67.39
2022-08-08T06:36:08.946Z,63.79
2022-08-08T06:41:06.106Z,65.07
2022-08-08T06:46:16.230Z,66.75
2022-08-08T06:51:31.260Z,67.65
2022-08-08T06:56:52.886Z,66.39
2022-08-08T07:02:27.898Z,66.12
2022-08-08T07:07:42.332Z,66.40
2022-08-08T07:12:54.351Z,65.08
2022-08-08T07:18:35.919Z,61.83
2022-08-08T07:24:01.080Z,60.42
2022-08-08T07:29:11.603Z,61.05
2022-08-08T07:34:31.666Z,66.02
2022-08-08T07:39:56.021Z,65.94
2022-08-08T07:45:05.149Z,63.92
2022-08-08T07:50:15.349Z,63.89
2022-08-08T07:55:30.299Z,62.42
2022-08-08T08:00:45.336Z,61.28
2022-08-08T08:05:56.129Z,59.91
2022-08-08T08:11:18.454Z,63.82
2022-08-08T08:16:26.498Z,60.51
2022-08-08T08:21:57.770Z,64.30
2022-08-08T08:27:17.571Z,63.23
2022-08-08T08:32:35.815Z,60.34
2022-08-08T08:38:14.673Z,59.16
2022-08-08T08:43:18.588Z,60.33
2022-08-08T08:48:24.630Z,58.42
2022-08-08T08:53:56.455Z,59.58
2022-08-08T08:59:06.408Z,58.61
2022-08-08T09:04:30.929Z,64.20
2022-08-08T09:09:47.622Z,63.56
2022-08-08T09:15:01.641Z,61.05
2022-08-08T09:22:00.860Z,63.21
2022-08-08T09:25:54.460Z,58.67
2022-08-08T09:31:12.744Z,62.01
2022-08-08T09:36:23.448Z,62.10
2022-08-08T09:41:54.777Z,59.94
2022-08-08T09:47:26.700Z,58.74
2022-08-08T09:52:56.074Z,56.20
2022-08-08T09:58:06.321Z,54.47
2022-08-08T10:03:15.920Z,56.71
2022-08-08T10:08:23.914Z,57.20
2022-08-08T10:13:35.554Z,59.64
2022-08-08T10:18:41.697Z,59.75
2022-08-08T10:23:56.001Z,60.01
2022-08-08T10:29:20.762Z,58.16
2022-08-08T10:34:43.754Z,55.22
2022-08-08T10:39:54.740Z,56.13
2022-08-08T10:45:08.152Z,57.46
2022-08-08T10:50:15.503Z,57.01
2022-08-08T10:55:40.020Z,59.40
2022-08-08T11:00:48.732Z,58.31
2022-08-08T11:06:00.606Z,59.18
2022-08-08T11:11:31.671Z,59.24
2022-08-08T11:16:34.542Z,60.64
2022-08-08T11:21:54.283Z,62.00
2022-08-08T11:27:19.498Z,60.42
2022-08-08T11:32:58.455Z,60.06
2022-08-08T11:38:39.601Z,60.22
2022-08-08T11:43:39.015Z,58.48
2022-08-08T11:48:47.808Z,57.50
2022-08-08T11:54:01.241Z,57.07
2022-08-08T11:59:10.246Z,58.80
2022-08-08T12:04:14.300Z,61.73
2022-08-08T12:09:56.458Z,60.74
2022-08-08T12:15:05.164Z,61.52
2022-08-08T12:20:10.518Z,62.99
2022-08-08T12:25:31.039Z,64.24
2022-08-08T12:30:36.085Z,65.67
2022-08-08T12:35:41.605Z,63.79
2022-08-08T12:41:18.343Z,64.01
2022-08-08T12:46:32.876Z,64.74
2022-08-08T12:51:49.610Z,65.60
2022-08-08T12:56:56.078Z,65.59
2022-08-08T13:02:02.871Z,63.49
2022-08-08T13:07:16.782Z,61.23
2022-08-08T13:12:30.311Z,61.77
2022-08-08T13:18:09.150Z,62.80
2022-08-08T13:23:31.332Z,62.41
2022-08-08T13:28:32.575Z,60.32
2022-08-08T13:33:42.166Z,57.87
2022-08-08T13:38:47.033Z,59.74
2022-08-08T13:43:52.489Z,59.06
2022-08-08T13:50:34.573Z,57.86
2022-08-08T13:54:31.405Z,58.15
2022-08-08T13:59:44.359Z,59.82
2022-08-08T14:04:55.194Z,59.58
2022-08-08T14:10:11.644Z,59.67
2022-08-08T14:15:39.621Z,60.30
2022-08-08T14:20:57.255Z,58.83
2022-08-08T14:26:10.532Z,58.50
2022-08-08T14:31:23.306Z,59.96
2022-08-08T14:36:53.422Z,58.84
2022-08-08T14:42:03.496Z,59.40
2022-08-08T14:47:21.234Z,58.30
2022-08-08T14:52:25.845Z,56.57
2022-08-08T14:58:03.215Z,57.65
2022-08-08T15:03:01.739Z,56.71
2022-08-08T15:08:22.134Z,56.62
2022-08-08T15:13:40.647Z,53.90
2022-08-08T15:19:03.393Z,54.12
2022-08-08T15:24:12.654Z,52.86
2022-08-08T15:29:22.544Z,51.86
2022-08-08T15:34:32.149Z,51.54
2022-08-08T15:39:39.628Z,48.62
2022-08-08T15:44:43.845Z,50.55
2022-08-08T15:49:50.732Z,52.16
2022-08-08T15:54:55.488Z,51.85
2022-08-08T16:00:05.748Z,50.70
2022-08-08T16:05:23.872Z,55.92
2022-08-08T16:13:04.198Z,55.27
2022-08-08T16:15:59.133Z,56.22
2022-08-08T16:21:20.571Z,58.63
2022-08-08T16:26:35.398Z,62.28
2022-08-08T16:31:44.705Z,64.00
2022-08-08T16:36:53.999Z,65.91
2022-08-08T16:42:01.307Z,65.74
2022-08-08T16:47:21.940Z,63.95
2022-08-08T16:55:03.232Z,62.13
2022-08-08T16:58:14.496Z,60.57
2022-08-08T17:03:25.475Z,59.74
2022-08-08T17:08:46.527Z,58.86
2022-08-08T17:14:01.785Z,60.46
2022-08-08T17:19:06.037Z,60.73
2022-08-08T17:24:26.965Z,59.68
2022-08-08T17:29:36.315Z,61.01
2022-08-08T17:35:44.463Z,61.46
2022-08-08T17:40:16.283Z,62.65
2022-08-08T17:45:22.606Z,63.98
2022-08-08T17:50:27.950Z,63.11
2022-08-08T17:56:06.728Z,63.83
2022-08-08T18:00:57.581Z,64.03
2022-08-08T18:06:01.599Z,63.36
2022-08-08T18:11:11.936Z,62.89
2022-08-08T18:16:23.454Z,62.41
2022-08-08T18:22:00.366Z,61.95
2022-08-08T18:26:57.142Z,62.92
2022-08-08T18:32:03.426Z,61.18
2022-08-08T18:37:09.550Z,60.88
2022-08-08T18:42:16.532Z,60.89
2022-08-08T18:47:21.716Z,61.46
2022-08-08T18:52:27.997Z,60.73
2022-08-08T18:57:40.841Z,60.07
2022-08-08T19:02:54.784Z,61.08
2022-08-08T19:08:00.741Z,61.58
2022-08-08T19:13:10.761Z,60.57
2022-08-08T19:18:33.276Z,60.70
2022-08-08T19:23:51.391Z,62.04
2022-08-08T19:28:56.448Z,62.47
2022-08-08T19:34:15.209Z,62.83
2022-08-08T19:39:30.922Z,62.58
2022-08-08T19:44:45.376Z,63.77
2022-08-08T19:50:00.204Z,64.64
2022-08-08T19:55:08.952Z,64.32
2022-08-08T20:00:29.004Z,63.44
2022-08-08T20:06:14.475Z,64.50
2022-08-08T20:10:59.119Z,63.85
2022-08-08T20:16:04.877Z,63.43
2022-08-08T20:21:10.828Z,63.23
2022-08-08T20:26:14.828Z,63.73
2022-08-08T20:31:20.368Z,65.09
2022-08-08T20:36:25.192Z,66.47
2022-08-08T20:41:31.227Z,66.13
2022-08-08T20:46:39.111Z,66.46
2022-08-08T20:51:52.885Z,67.67
2022-08-08T20:57:04.626Z,67.40
2022-08-08T21:02:25.922Z,67.60
2022-08-08T21:08:07.908Z,67.74
2022-08-08T21:12:54.843Z,68.99
2022-08-08T21:18:00.289Z,68.46
2022-08-08T21:23:05.253Z,69.97
2022-08-08T21:28:15.029Z,70.43
2022-08-08T21:33:21.747Z,70.77
2022-08-08T21:38:25.751Z,70.57
2022-08-08T21:43:33.414Z,68.76
2022-08-08T21:48:41.613Z,68.08
2022-08-08T21:54:34.121Z,69.23
2022-08-08T21:59:17.033Z,69.39
2022-08-08T22:04:26.316Z,69.18
2022-08-08T22:09:37.538Z,71.49
2022-08-08T22:14:47.297Z,71.20
2022-08-08T22:20:13.103Z,68.56
2022-08-08T22:25:25.125Z,69.59
2022-08-08T22:30:30.045Z,69.65
2022-08-08T22:36:05.198Z,74.76
2022-08-08T22:40:59.477Z,76.21
2022-08-08T22:46:04.347Z,75.52
2022-08-08T22:51:09.588Z,74.65
2022-08-08T22:56:13.569Z,73.91
2022-08-08T23:02:03.076Z,72.42
2022-08-08T23:06:42.968Z,73.26
2022-08-08T23:12:17.903Z,75.81
2022-08-08T23:17:14.625Z,76.36
2022-08-08T23:30:19.902Z,79.67
2022-08-08T23:35:23.537Z,79.69
2022-08-08T23:40:28.333Z,78.69
2022-08-08T23:49:07.121Z,76.30
2022-08-08T23:50:59.283Z,74.08
2022-08-08T23:56:04.834Z,72.32
